Time;durP1;ratioP1;P1;durP2;ratioP2;P2;SDS_P1;SDS_P2;PMS_P1;PMS_P2;Temp;Humidity;BMP_temperature;BMP_pressure;BME280_temperature;BME280_humidity;BME280_pressure;Samples;Min_cycle;Max_cycle;Signal;HPM_P1;HPM_P2
2022/11/21 00:02:23;;;;;;;1.85;1.48;;;4.10;99.90;;;;;;7608010;19;20014;-71
2022/11/21 00:04:56;;;;;;;2.42;1.67;;;4.20;99.90;;;;;;7605989;19;20692;-72
2022/11/21 00:07:28;;;;;;;1.95;1.50;;;4.20;99.90;;;;;;7608164;19;20014;-70
2022/11/21 00:10:00;;;;;;;2.90;1.40;;;4.20;99.90;;;;;;7600624;19;20026;-72
2022/11/21 00:12:32;;;;;;;1.77;1.20;;;4.20;99.90;;;;;;7607980;19;20010;-72
2022/11/21 00:15:05;;;;;;;2.30;1.60;;;4.20;99.90;;;;;;7606019;19;20544;-72
2022/11/21 00:17:37;;;;;;;4.72;1.60;;;4.10;99.90;;;;;;7613367;19;20022;-72
2022/11/21 00:20:09;;;;;;;2.60;1.70;;;4.10;99.90;;;;;;7612705;19;20022;-70
2022/11/21 00:22:42;;;;;;;1.50;1.10;;;4.00;99.90;;;;;;7607781;19;20060;-72
2022/11/21 00:25:14;;;;;;;1.95;1.10;;;4.00;99.90;;;;;;7601256;19;20018;-71
2022/11/21 00:27:46;;;;;;;2.13;1.55;;;4.10;99.90;;;;;;7616566;19;20030;-72
2022/11/21 00:30:19;;;;;;;2.30;1.42;;;4.20;99.90;;;;;;7614966;19;20034;-72
2022/11/21 00:32:51;;;;;;;2.20;1.63;;;4.00;99.90;;;;;;7616411;19;20019;-72
2022/11/21 00:35:23;;;;;;;2.75;1.92;;;4.10;99.90;;;;;;7612424;19;20015;-72
2022/11/21 00:37:55;;;;;;;3.00;1.58;;;4.10;99.90;;;;;;7619546;19;20043;-71
2022/11/21 00:40:27;;;;;;;3.78;2.10;;;4.00;99.90;;;;;;7588401;19;20466;-71
2022/11/21 00:42:59;;;;;;;5.60;2.78;;;4.00;99.90;;;;;;7603765;19;20601;-72
2022/11/21 00:45:31;;;;;;;2.42;1.20;;;4.10;99.90;;;;;;7616393;19;20018;-71
2022/11/21 00:48:04;;;;;;;2.83;1.73;;;4.10;99.90;;;;;;7615401;19;20052;-72
2022/11/21 00:50:36;;;;;;;3.42;1.77;;;4.10;99.90;;;;;;7611601;19;20030;-72
2022/11/21 00:53:08;;;;;;;3.28;2.03;;;4.10;99.90;;;;;;7601007;19;20412;-72
2022/11/21 00:55:41;;;;;;;2.10;1.60;;;4.10;99.90;;;;;;7609309;19;21143;-72
2022/11/21 00:58:13;;;;;;;2.83;1.10;;;4.00;99.90;;;;;;7600411;19;20022;-71
2022/11/21 01:00:45;;;;;;;1.08;0.95;;;4.00;99.90;;;;;;7591264;19;20959;-73
2022/11/21 01:03:17;;;;;;;1.67;0.88;;;4.10;99.90;;;;;;7618916;19;20014;-72
2022/11/21 01:05:49;;;;;;;1.75;1.00;;;4.10;99.90;;;;;;7612660;19;20021;-72
2022/11/21 01:08:21;;;;;;;1.08;0.70;;;4.10;99.90;;;;;;7612721;19;20018;-73
2022/11/21 01:10:54;;;;;;;1.08;0.65;;;4.00;99.90;;;;;;7609627;19;20486;-72
2022/11/21 01:13:26;;;;;;;1.00;0.90;;;4.00;99.90;;;;;;7616072;19;20286;-73
2022/11/21 01:16:08;;;;;;;1.83;1.27;;;4.00;99.90;;;;;;7616152;19;20167;-72
2022/11/21 01:18:41;;;;;;;1.58;0.98;;;4.00;99.90;;;;;;7610495;19;21049;-73
2022/11/21 01:21:16;;;;;;;1.55;1.02;;;4.00;99.90;;;;;;7612497;19;20056;-73
2022/11/21 01:23:49;;;;;;;1.23;0.98;;;4.10;99.90;;;;;;7604050;19;20113;-73
2022/11/21 01:26:23;;;;;;;1.73;1.40;;;4.00;99.90;;;;;;7602546;19;20022;-73
2022/11/21 01:28:56;;;;;;;1.40;0.85;;;4.10;99.90;;;;;;7607803;19;20015;-72
2022/11/21 01:31:29;;;;;;;1.17;1.00;;;4.10;99.90;;;;;;7603677;19;20017;-73
2022/11/21 01:34:01;;;;;;;1.13;0.93;;;4.10;99.90;;;;;;7608603;19;20549;-73
2022/11/21 01:36:33;;;;;;;1.60;1.00;;;4.10;99.90;;;;;;7611375;19;20698;-73
2022/11/21 01:39:07;;;;;;;1.27;1.00;;;4.10;99.90;;;;;;7594310;19;20025;-73
2022/11/21 01:41:41;;;;;;;2.00;1.08;;;4.10;99.90;;;;;;7608620;19;20019;-73
2022/11/21 01:44:22;;;;;;;1.10;1.00;;;4.20;99.90;;;;;;7610278;19;20030;-72
2022/11/21 01:46:54;;;;;;;1.08;0.90;;;4.20;99.90;;;;;;7603637;19;20407;-74
2022/11/21 01:49:29;;;;;;;0.93;0.90;;;4.30;99.90;;;;;;7608650;19;20102;-74
2022/11/21 01:52:18;;;;;;;1.30;1.00;;;4.40;99.90;;;;;;7610806;19;20010;-73
2022/11/21 01:54:59;;;;;;;3.50;0.93;;;4.30;99.90;;;;;;7597493;19;20022;-72
2022/11/21 01:57:44;;;;;;;3.28;1.30;;;4.30;99.90;;;;;;7603610;19;20030;-72
2022/11/21 02:00:26;;;;;;;2.22;1.00;;;4.30;99.90;;;;;;7601403;19;20654;-71
2022/11/21 02:03:03;;;;;;;2.30;1.00;;;4.40;99.90;;;;;;7599791;19;20018;-72
2022/11/21 02:05:36;;;;;;;1.58;1.10;;;4.40;99.90;;;;;;7607949;19;20364;-72
2022/11/21 02:08:11;;;;;;;;;;;4.40;99.90;;;;;;7602082;19;20025;-71
2022/11/21 02:10:55;;;;;;;1.73;1.30;;;4.50;99.90;;;;;;7606606;19;20449;-72
2022/11/21 02:13:27;;;;;;;1.33;0.90;;;4.50;99.90;;;;;;7593524;19;20018;-71
2022/11/21 02:16:00;;;;;;;1.02;0.90;;;4.50;99.90;;;;;;7607488;19;20018;-72
2022/11/21 02:18:33;;;;;;;2.13;1.30;;;4.50;99.90;;;;;;7601035;19;20608;-72
2022/11/21 02:21:14;;;;;;;3.10;1.00;;;4.50;99.90;;;;;;7603566;19;20029;-73
2022/11/21 02:24:13;;;;;;;2.67;1.08;;;4.50;99.90;;;;;;7603234;19;20026;-72
2022/11/21 02:26:47;;;;;;;2.75;1.27;;;4.50;99.90;;;;;;7605816;19;20025;-72
2022/11/21 02:29:19;;;;;;;1.75;1.00;;;4.60;99.90;;;;;;7595773;19;20017;-71
2022/11/21 02:31:51;;;;;;;1.30;1.05;;;4.50;99.90;;;;;;7599730;19;20100;-72
2022/11/21 02:34:23;;;;;;;1.83;1.10;;;4.50;99.90;;;;;;7607611;19;20023;-72
2022/11/21 02:36:56;;;;;;;1.30;0.93;;;4.60;99.90;;;;;;7617155;19;20026;-71
2022/11/21 02:39:35;;;;;;;1.75;1.20;;;4.70;99.90;;;;;;7595903;19;20122;-72
2022/11/21 02:42:32;;;;;;;2.83;1.30;;;4.70;99.90;;;;;;7596206;19;20014;-72
2022/11/21 02:45:24;;;;;;;1.63;0.85;;;4.80;99.90;;;;;;7600133;19;20018;-71
2022/11/21 02:47:56;;;;;;;3.67;0.80;;;4.80;99.90;;;;;;7605613;19;20022;-72
2022/11/21 02:50:43;;;;;;;1.77;1.10;;;4.90;99.90;;;;;;7612561;19;20018;-72
2022/11/21 02:53:18;;;;;;;2.22;1.48;;;4.70;99.90;;;;;;7599967;19;20082;-72
2022/11/21 02:55:50;;;;;;;1.95;1.30;;;4.70;99.90;;;;;;7602067;19;20137;-72
2022/11/21 02:58:22;;;;;;;2.22;1.40;;;4.60;99.90;;;;;;7596573;19;20030;-72
2022/11/21 03:00:54;;;;;;;1.42;0.88;;;4.60;99.90;;;;;;7603103;19;20018;-72
2022/11/21 03:03:26;;;;;;;4.43;1.10;;;4.70;99.90;;;;;;7604962;19;20615;-73
2022/11/21 03:05:58;;;;;;;4.13;1.40;;;4.70;99.90;;;;;;7601997;19;20011;-71
2022/11/21 03:08:30;;;;;;;4.70;1.05;;;4.60;99.90;;;;;;7582885;19;20010;-72
2022/11/21 03:11:03;;;;;;;1.83;1.08;;;4.60;99.90;;;;;;7612087;19;20085;-73
2022/11/21 03:13:35;;;;;;;1.90;1.08;;;4.70;99.90;;;;;;7606230;19;20014;-73
2022/11/21 03:16:07;;;;;;;2.67;1.10;;;4.70;99.90;;;;;;7611832;19;20019;-72
2022/11/21 03:18:39;;;;;;;1.75;0.70;;;4.80;99.90;;;;;;7613326;19;20026;-72
2022/11/21 03:21:10;;;;;;;4.53;0.95;;;4.80;99.90;;;;;;7613136;19;20023;-73
2022/11/21 03:23:43;;;;;;;3.72;1.83;;;4.80;99.90;;;;;;7598984;19;20018;-72
2022/11/21 03:26:14;;;;;;;2.28;1.30;;;4.60;99.90;;;;;;7603088;19;20391;-72
2022/11/21 03:28:47;;;;;;;1.95;1.00;;;4.80;99.90;;;;;;7606346;19;20378;-72
2022/11/21 03:31:19;;;;;;;5.72;1.30;;;4.70;99.90;;;;;;7596250;19;20021;-72
2022/11/21 03:33:51;;;;;;;4.00;1.10;;;4.50;99.90;;;;;;7602771;19;20011;-71
2022/11/21 03:36:23;;;;;;;2.70;1.00;;;4.50;99.90;;;;;;7602154;19;20014;-72
2022/11/21 03:38:56;;;;;;;2.35;1.27;;;4.50;99.90;;;;;;7597583;19;20320;-73
2022/11/21 03:41:28;;;;;;;3.65;1.42;;;4.50;99.90;;;;;;7592412;19;20502;-72
2022/11/21 03:44:05;;;;;;;2.55;1.08;;;4.50;99.90;;;;;;7593286;19;20026;-73
2022/11/21 03:46:44;;;;;;;4.78;1.60;;;4.40;99.90;;;;;;7594745;19;20022;-72
2022/11/21 03:49:16;;;;;;;2.13;1.10;;;4.40;99.90;;;;;;7604547;19;20021;-72
2022/11/21 03:51:48;;;;;;;2.92;1.33;;;4.40;99.90;;;;;;7605146;19;20868;-72
2022/11/21 03:54:20;;;;;;;1.75;1.10;;;4.40;99.90;;;;;;7602738;19;20022;-73
2022/11/21 03:56:52;;;;;;;3.15;1.20;;;4.40;99.90;;;;;;7608580;19;20029;-71
2022/11/21 03:59:25;;;;;;;2.25;0.90;;;4.40;99.90;;;;;;7604754;19;20010;-73
2022/11/21 04:01:57;;;;;;;3.78;1.27;;;4.40;99.90;;;;;;7607079;19;20025;-72
2022/11/21 04:04:29;;;;;;;3.03;1.00;;;4.50;99.90;;;;;;7579850;19;20019;-73
2022/11/21 04:07:01;;;;;;;2.42;1.42;;;4.50;99.90;;;;;;7605215;19;20026;-73
2022/11/21 04:09:33;;;;;;;2.50;1.00;;;4.40;99.90;;;;;;7587912;19;20020;-72
2022/11/21 04:12:06;;;;;;;4.50;1.42;;;4.40;99.90;;;;;;7612538;19;20648;-71
2022/11/21 04:14:39;;;;;;;8.40;1.30;;;4.40;99.90;;;;;;7594851;19;20021;-72
2022/11/21 04:17:11;;;;;;;2.65;0.90;;;4.50;99.90;;;;;;7604716;19;20035;-72
2022/11/21 04:19:43;;;;;;;4.38;1.17;;;4.50;99.90;;;;;;7608891;19;20018;-72
2022/11/21 04:22:15;;;;;;;1.80;0.90;;;4.50;99.90;;;;;;7592948;19;20014;-72
2022/11/21 04:24:47;;;;;;;3.47;1.25;;;4.60;99.90;;;;;;7600352;19;20018;-72
2022/11/21 04:27:19;;;;;;;3.35;1.20;;;4.70;99.90;;;;;;7605235;19;20018;-71
2022/11/21 04:29:51;;;;;;;6.72;1.20;;;4.70;99.90;;;;;;7607532;19;20018;-71
2022/11/21 04:32:23;;;;;;;3.90;1.20;;;4.70;99.90;;;;;;7556913;19;20905;-72
2022/11/21 04:34:55;;;;;;;1.00;0.82;;;4.70;99.90;;;;;;7574978;19;20018;-72
2022/11/21 04:37:27;;;;;;;6.78;1.27;;;4.70;99.90;;;;;;7593362;19;20074;-72
2022/11/21 04:40:00;;;;;;;3.28;0.93;;;4.70;99.90;;;;;;7574936;19;20052;-71
2022/11/21 04:42:32;;;;;;;3.90;1.10;;;4.70;99.90;;;;;;7543021;19;20022;-72
2022/11/21 04:45:05;;;;;;;3.40;1.00;;;4.80;99.90;;;;;;7592403;19;20014;-71
2022/11/21 04:47:38;;;;;;;3.50;1.10;;;4.80;99.90;;;;;;7583842;19;20010;-71
2022/11/21 04:50:14;;;;;;;1.60;0.85;;;4.90;99.90;;;;;;7605546;19;20146;-72
2022/11/21 04:52:54;;;;;;;9.55;1.65;;;5.00;99.90;;;;;;7593939;19;20023;-71
2022/11/21 04:55:29;;;;;;;6.18;2.17;;;4.80;99.90;;;;;;7580481;19;20774;-72
2022/11/21 04:58:02;;;;;;;3.65;1.55;;;4.80;99.90;;;;;;7601783;19;20956;-72
2022/11/21 05:00:34;;;;;;;5.60;1.50;;;4.70;99.90;;;;;;7601612;19;20018;-71
2022/11/21 05:03:06;;;;;;;3.03;1.20;;;4.80;99.90;;;;;;7597536;19;20712;-71
2022/11/21 05:05:39;;;;;;;11.80;1.60;;;4.70;99.90;;;;;;7574940;19;20015;-71
2022/11/21 05:08:11;;;;;;;7.45;1.45;;;4.70;99.90;;;;;;7582843;19;20022;-72
2022/11/21 05:13:34;;;;;;;4.22;1.27;;;4.60;99.90;;;;;;7615429;19;20026;-71
2022/11/21 05:16:06;;;;;;;9.85;1.77;;;4.70;99.90;;;;;;7607462;19;20019;-71
2022/11/21 05:18:38;;;;;;;4.68;1.30;;;4.70;99.90;;;;;;7605147;19;20018;-72
2022/11/21 05:21:10;;;;;;;2.85;1.30;;;4.60;99.90;;;;;;7587731;19;20240;-71
2022/11/21 05:23:42;;;;;;;2.58;1.00;;;4.60;99.90;;;;;;7608651;19;20024;-70
2022/11/21 05:26:14;;;;;;;5.50;1.88;;;4.70;99.90;;;;;;7566062;19;20021;-71
2022/11/21 05:28:47;;;;;;;5.57;0.95;;;4.60;99.90;;;;;;7584662;19;20010;-71
2022/11/21 05:31:19;;;;;;;3.97;1.23;;;4.50;99.90;;;;;;7596462;19;20035;-71
2022/11/21 05:33:51;;;;;;;3.97;1.48;;;4.50;99.90;;;;;;7567547;19;20030;-70
2022/11/21 05:36:23;;;;;;;6.90;2.25;;;4.40;99.90;;;;;;7589797;19;20022;-71
2022/11/21 05:38:56;;;;;;;7.82;2.40;;;4.40;99.90;;;;;;7593456;19;20070;-73
2022/11/21 05:41:28;;;;;;;13.57;4.35;;;4.30;99.90;;;;;;7585694;19;20518;-72
2022/11/21 05:44:00;;;;;;;6.65;2.53;;;4.30;99.90;;;;;;7586348;19;20018;-72
2022/11/21 05:46:33;;;;;;;3.72;1.40;;;4.30;99.90;;;;;;7576816;19;20014;-71
2022/11/21 05:49:05;;;;;;;6.53;1.55;;;4.30;99.90;;;;;;7597870;19;20099;-72
2022/11/21 05:51:39;;;;;;;4.90;1.40;;;4.30;99.90;;;;;;7608832;19;20109;-71
2022/11/21 05:54:13;;;;;;;8.40;2.55;;;4.20;99.90;;;;;;7605950;19;20018;-72
2022/11/21 05:56:45;;;;;;;4.70;1.67;;;4.20;99.90;;;;;;7570743;19;20015;-72
2022/11/21 05:59:17;;;;;;;4.78;1.38;;;4.20;99.90;;;;;;7579787;19;20501;-71
2022/11/21 06:04:40;;;;;;;5.57;1.55;;;4.30;99.90;;;;;;7576983;19;20018;-72
2022/11/21 06:07:12;;;;;;;1.70;1.00;;;4.40;99.90;;;;;;7556842;19;20794;-72
2022/11/21 06:09:44;;;;;;;4.63;1.33;;;4.40;99.90;;;;;;7567599;19;20019;-72
2022/11/21 06:12:17;;;;;;;4.90;1.50;;;4.30;99.90;;;;;;7582642;19;20025;-72
2022/11/21 06:14:56;;;;;;;6.95;1.30;;;4.40;99.90;;;;;;7599150;19;20011;-72
2022/11/21 06:17:28;;;;;;;6.32;1.60;;;4.40;99.90;;;;;;7597054;19;20142;-72
2022/11/21 06:20:00;;;;;;;4.75;1.90;;;4.40;99.90;;;;;;7554438;19;20019;-73
2022/11/21 06:22:33;;;;;;;4.70;2.35;;;4.40;99.90;;;;;;7523129;19;20014;-72
2022/11/21 06:25:05;;;;;;;6.60;2.08;;;4.50;99.90;;;;;;7538021;19;20015;-71
2022/11/21 06:27:37;;;;;;;6.15;2.38;;;4.50;99.90;;;;;;7518595;19;20377;-71
2022/11/21 06:30:10;;;;;;;5.03;1.38;;;4.50;99.90;;;;;;7555033;19;20609;-71
2022/11/21 06:32:42;;;;;;;4.80;1.67;;;4.50;99.90;;;;;;7545584;19;20029;-71
2022/11/21 06:35:14;;;;;;;3.33;1.52;;;4.50;99.90;;;;;;7544343;19;20006;-71
2022/11/21 06:37:47;;;;;;;2.97;1.00;;;4.60;99.90;;;;;;7582858;19;20029;-71
2022/11/21 06:40:24;;;;;;;3.60;1.48;;;4.60;99.90;;;;;;7527242;19;23166;-72
2022/11/21 06:42:57;;;;;;;1.60;1.13;;;4.60;99.90;;;;;;7544960;19;21338;-72
2022/11/21 06:45:29;;;;;;;1.80;1.48;;;4.70;99.90;;;;;;7542022;19;20014;-72
2022/11/21 06:48:02;;;;;;;3.00;1.20;;;4.70;99.90;;;;;;7542455;19;20918;-74
2022/11/21 06:50:34;;;;;;;2.00;1.25;;;4.80;99.90;;;;;;7541976;19;20010;-72
2022/11/21 06:53:06;;;;;;;4.80;1.10;;;4.80;99.90;;;;;;7534622;19;20633;-71
2022/11/21 06:55:38;;;;;;;3.78;1.13;;;4.80;99.90;;;;;;7574888;19;20021;-74
2022/11/21 06:58:10;;;;;;;1.40;0.70;;;4.80;99.90;;;;;;7595599;19;20018;-71
2022/11/21 07:00:43;;;;;;;1.25;0.82;;;4.90;99.90;;;;;;7595170;19;20014;-72
2022/11/21 07:03:15;;;;;;;1.85;1.10;;;4.90;99.90;;;;;;7602437;19;21116;-71
2022/11/21 07:05:48;;;;;;;6.13;1.75;;;4.90;99.90;;;;;;7595265;19;20056;-72
2022/11/21 07:08:21;;;;;;;1.27;0.98;;;4.90;99.90;;;;;;7603479;19;20047;-73
2022/11/21 07:10:53;;;;;;;1.40;0.93;;;4.90;99.90;;;;;;7594057;19;20010;-71
2022/11/21 07:13:45;;;;;;;1.30;0.90;;;4.90;99.90;;;;;;7590613;19;20654;-71
2022/11/21 07:16:17;;;;;;;2.00;1.00;;;5.00;99.90;;;;;;7574575;19;20010;-73
2022/11/21 07:18:49;;;;;;;1.70;0.90;;;4.90;99.90;;;;;;7596842;19;20014;-74
2022/11/21 07:21:21;;;;;;;2.05;1.10;;;4.80;99.90;;;;;;7600777;19;20669;-74
2022/11/21 07:23:53;;;;;;;1.20;0.95;;;4.80;99.90;;;;;;7608628;19;20011;-74
2022/11/21 07:26:25;;;;;;;2.35;0.90;;;4.90;99.90;;;;;;7605815;19;20026;-73
2022/11/21 07:28:57;;;;;;;0.90;0.85;;;4.80;99.90;;;;;;7580853;19;20569;-74
2022/11/21 07:31:30;;;;;;;1.80;0.70;;;4.70;99.90;;;;;;7579956;19;20010;-73
2022/11/21 07:34:02;;;;;;;2.45;0.80;;;4.80;99.90;;;;;;7581673;19;20006;-74
2022/11/21 07:36:35;;;;;;;1.40;1.17;;;4.70;99.90;;;;;;7608737;19;20020;-73
2022/11/21 07:39:07;;;;;;;2.00;0.80;;;4.70;99.90;;;;;;7616272;19;20876;-73
2022/11/21 07:41:39;;;;;;;1.45;0.77;;;4.70;99.90;;;;;;7602353;19;20830;-73
2022/11/21 07:44:11;;;;;;;0.73;0.60;;;4.70;99.90;;;;;;7599994;19;20018;-73
2022/11/21 07:46:44;;;;;;;2.47;0.90;;;4.70;99.90;;;;;;7598312;19;20018;-72
2022/11/21 07:49:16;;;;;;;3.55;0.60;;;4.70;99.90;;;;;;7601590;19;20014;-72
2022/11/21 07:51:48;;;;;;;1.00;0.80;;;4.80;99.90;;;;;;7605679;19;20022;-72
2022/11/21 07:54:20;;;;;;;1.85;0.82;;;4.70;99.90;;;;;;7605034;19;20030;-75
2022/11/21 07:56:52;;;;;;;2.25;0.60;;;4.70;99.90;;;;;;7617559;19;20014;-75
2022/11/21 07:59:25;;;;;;;2.10;0.60;;;4.80;99.90;;;;;;7613658;19;20014;-72
2022/11/21 08:01:57;;;;;;;3.28;0.88;;;4.80;99.90;;;;;;7612785;19;20018;-72
2022/11/21 08:04:30;;;;;;;2.47;0.95;;;4.70;99.90;;;;;;7613724;19;20033;-74
2022/11/21 08:07:02;;;;;;;2.67;0.80;;;4.60;99.90;;;;;;7614961;19;20057;-75
2022/11/21 08:09:34;;;;;;;1.50;0.80;;;4.70;99.90;;;;;;7618627;19;20022;-73
2022/11/21 08:12:11;;;;;;;0.70;0.60;;;4.80;99.90;;;;;;7613638;19;20721;-74
2022/11/21 08:14:43;;;;;;;1.80;0.90;;;4.90;99.90;;;;;;7602364;19;20542;-74
2022/11/21 08:17:17;;;;;;;2.03;0.77;;;5.00;99.90;;;;;;7610296;19;20018;-75
2022/11/21 08:19:49;;;;;;;1.52;0.60;;;5.00;99.90;;;;;;7614640;19;20018;-76
2022/11/21 08:22:21;;;;;;;0.63;0.50;;;5.00;99.90;;;;;;7608515;19;20042;-73
2022/11/21 08:24:53;;;;;;;1.25;0.65;;;4.90;99.90;;;;;;7609742;19;20108;-74
2022/11/21 08:27:26;;;;;;;2.13;0.77;;;5.00;99.90;;;;;;7617492;19;20022;-75
2022/11/21 08:29:59;;;;;;;0.52;0.52;;;4.90;99.90;;;;;;7608627;19;20453;-74
2022/11/21 08:32:31;;;;;;;2.47;0.70;;;5.00;99.90;;;;;;7616845;19;20494;-74
2022/11/21 08:35:03;;;;;;;0.80;0.63;;;5.10;99.90;;;;;;7604592;19;20026;-72
2022/11/21 08:37:35;;;;;;;3.58;0.70;;;5.10;99.90;;;;;;7615116;19;20022;-73
2022/11/21 08:40:08;;;;;;;2.55;0.60;;;5.00;99.90;;;;;;7612735;19;20022;-74
2022/11/21 08:42:40;;;;;;;1.55;0.85;;;5.20;99.90;;;;;;7615947;19;20014;-75
2022/11/21 08:45:12;;;;;;;2.10;0.75;;;5.20;99.90;;;;;;7610451;19;21050;-74
2022/11/21 08:47:44;;;;;;;2.90;0.90;;;5.10;99.90;;;;;;7617485;19;20018;-72
2022/11/21 08:50:16;;;;;;;2.15;0.90;;;5.10;99.90;;;;;;7620160;19;20853;-75
2022/11/21 08:52:49;;;;;;;1.33;0.93;;;5.20;99.90;;;;;;7615306;19;20022;-75
2022/11/21 08:55:21;;;;;;;1.67;1.00;;;5.10;99.90;;;;;;7619619;19;20568;-74
2022/11/21 08:57:54;;;;;;;2.33;1.15;;;5.10;99.90;;;;;;7620833;19;20014;-75
2022/11/21 09:00:26;;;;;;;4.78;0.88;;;5.10;99.90;;;;;;7622105;19;20693;-75
2022/11/21 09:03:02;;;;;;;4.20;1.35;;;5.20;99.90;;;;;;7619043;19;20021;-74
2022/11/21 09:05:34;;;;;;;4.93;1.52;;;5.30;99.90;;;;;;7613970;19;20013;-74
2022/11/21 09:08:06;;;;;;;4.68;1.10;;;5.40;99.90;;;;;;7619357;19;20516;-75
2022/11/21 09:10:39;;;;;;;5.15;1.10;;;5.40;99.90;;;;;;7620209;19;20092;-74
2022/11/21 09:13:11;;;;;;;4.85;1.13;;;5.40;99.90;;;;;;7615342;19;20022;-75
2022/11/21 09:18:34;;;;;;;6.20;1.33;;;5.70;99.90;;;;;;7573032;19;20011;-75
2022/11/21 09:21:06;;;;;;;4.03;0.90;;;6.00;99.90;;;;;;7575236;19;20043;-74
2022/11/21 09:23:38;;;;;;;1.52;0.73;;;6.10;99.90;;;;;;7573825;19;20010;-75
2022/11/21 09:26:11;;;;;;;5.13;1.35;;;6.00;99.90;;;;;;7576870;19;20015;-74
2022/11/21 09:28:43;;;;;;;3.17;0.90;;;6.00;99.90;;;;;;7564371;19;20025;-75
2022/11/21 09:31:15;;;;;;;1.75;0.90;;;6.00;99.90;;;;;;7576045;19;20026;-74
2022/11/21 09:33:47;;;;;;;1.65;1.23;;;5.90;99.90;;;;;;7573747;19;20430;-74
2022/11/21 09:36:25;;;;;;;4.30;1.00;;;6.00;99.90;;;;;;7570596;19;20567;-74
2022/11/21 09:38:58;;;;;;;1.92;0.90;;;6.10;99.90;;;;;;7577692;19;20051;-74
2022/11/21 09:41:53;;;;;;;3.90;1.10;;;6.20;99.90;;;;;;7572406;19;20367;-73
2022/11/21 09:44:50;;;;;;;2.63;0.85;;;6.30;99.90;;;;;;7577747;19;20033;-75
2022/11/21 09:47:25;;;;;;;2.78;1.13;;;6.40;99.90;;;;;;7574478;19;20030;-74
2022/11/21 09:50:16;;;;;;;3.17;0.90;;;6.30;99.90;;;;;;7570766;19;20064;-74
2022/11/21 09:52:55;;;;;;;2.92;1.10;;;6.50;99.90;;;;;;7554205;19;20030;-74
2022/11/21 09:55:34;;;;;;;3.67;1.30;;;6.50;99.90;;;;;;7544079;19;20655;-72
2022/11/21 09:58:34;;;;;;;3.20;1.10;;;6.50;99.90;;;;;;7561384;19;20022;-75
2022/11/21 10:01:13;;;;;;;3.50;1.38;;;6.50;99.90;;;;;;7553966;19;22156;-74
2022/11/21 10:03:48;;;;;;;4.38;1.30;;;6.40;99.90;;;;;;7562470;19;20014;-74
2022/11/21 10:06:30;;;;;;;3.22;1.10;;;6.50;99.90;;;;;;7550413;19;20896;-73
2022/11/21 10:09:43;;;;;;;5.20;1.15;;;6.60;99.90;;;;;;7564151;19;20011;-74
2022/11/21 10:12:37;;;;;;;1.65;1.00;;;6.80;99.90;;;;;;7552740;19;20014;-74
2022/11/21 10:15:25;;;;;;;;;;;6.80;99.90;;;;;;7532473;19;20131;-73
2022/11/21 10:18:23;;;;;;;2.97;1.25;;;6.90;99.90;;;;;;7560993;19;19949;-73
2022/11/21 10:21:23;;;;;;;2.45;1.30;;;6.90;99.90;;;;;;7559726;19;20018;-72
2022/11/21 10:23:58;;;;;;;4.65;1.00;;;7.00;99.90;;;;;;7556431;19;20081;-73
2022/11/21 10:26:54;;;;;;;5.18;1.30;;;6.90;99.90;;;;;;7557246;19;20025;-73
2022/11/21 10:29:35;;;;;;;3.40;1.13;;;6.80;99.90;;;;;;7549132;19;20021;-72
2022/11/21 10:32:50;;;;;;;3.25;1.00;;;6.70;99.90;;;;;;7514884;19;20080;-72
2022/11/21 10:35:45;;;;;;;5.30;1.40;;;6.80;99.90;;;;;;7527589;19;20022;-75
2022/11/21 10:38:22;;;;;;;3.72;1.20;;;6.80;99.90;;;;;;7561745;19;20022;-71
2022/11/21 10:40:54;;;;;;;7.75;1.80;;;7.00;99.90;;;;;;7558816;19;20016;-73
2022/11/21 10:46:29;;;;;;;2.20;1.17;;;7.20;99.90;;;;;;7560612;19;20011;-75
2022/11/21 10:49:03;;;;;;;7.70;1.63;;;7.20;99.90;;;;;;7563064;19;20065;-75
2022/11/21 10:51:48;;;;;;;5.95;1.45;;;7.30;99.90;;;;;;7563735;19;20114;-73
2022/11/21 10:54:33;;;;;;;4.30;1.27;;;7.40;99.90;;;;;;7566437;19;20025;-75
2022/11/21 10:57:14;;;;;;;7.68;2.88;;;7.30;99.90;;;;;;7572407;19;21599;-74
2022/11/21 11:00:12;;;;;;;3.25;1.20;;;7.30;99.90;;;;;;7553193;19;20858;-75
2022/11/21 11:02:56;;;;;;;6.65;1.55;;;7.30;99.90;;;;;;7558633;19;20789;-74
2022/11/21 11:05:40;;;;;;;4.60;1.75;;;7.30;99.90;;;;;;7537734;19;20018;-74
2022/11/21 11:08:13;;;;;;;6.82;2.45;;;7.50;99.90;;;;;;7565022;19;20525;-75
2022/11/21 11:11:05;;;;;;;6.18;1.70;;;7.80;99.90;;;;;;7559063;19;20022;-74
2022/11/21 11:13:59;;;;;;;4.22;1.52;;;8.00;99.90;;;;;;7570757;19;20014;-73
2022/11/21 11:16:35;;;;;;;8.52;1.83;;;8.20;99.90;;;;;;7553817;19;21128;-74
2022/11/21 11:19:12;;;;;;;4.75;2.05;;;8.40;99.90;;;;;;7561920;19;20006;-74
2022/11/21 11:21:45;;;;;;;7.53;1.92;;;8.80;99.90;;;;;;7575294;19;20018;-74
2022/11/21 11:24:25;;;;;;;4.05;1.10;;;9.20;99.90;;;;;;7562675;19;20677;-73
2022/11/21 11:27:02;;;;;;;4.05;1.70;;;9.10;97.70;;;;;;7565544;19;20014;-74
2022/11/21 11:29:49;;;;;;;6.50;2.00;;;9.50;96.00;;;;;;7564569;19;20029;-74
2022/11/21 11:32:21;;;;;;;10.48;3.05;;;9.30;95.70;;;;;;7563997;19;20010;-74
2022/11/21 11:35:07;;;;;;;4.77;1.93;;;9.10;96.10;;;;;;7570800;19;20412;-74
2022/11/21 11:37:41;;;;;;;6.35;1.80;;;8.80;97.50;;;;;;7560700;19;20271;-74
2022/11/21 11:40:17;;;;;;;9.85;2.90;;;8.60;99.10;;;;;;7559813;19;20010;-74
2022/11/21 11:52:28;;;;;;;2.70;1.50;;;8.00;96.30;;;;;;7562896;19;20029;-73
2022/11/21 11:55:30;;;;;;;3.72;2.00;;;7.90;99.90;;;;;;7559809;19;21012;-73
2022/11/21 11:58:10;;;;;;;2.95;1.35;;;7.70;99.90;;;;;;7563600;19;20010;-74
2022/11/21 12:01:02;;;;;;;2.97;1.83;;;7.70;99.90;;;;;;7567533;19;20014;-73
2022/11/21 12:03:55;;;;;;;4.22;1.55;;;7.60;99.90;;;;;;7567264;19;20025;-75
2022/11/21 12:06:33;;;;;;;8.18;2.35;;;7.60;99.90;;;;;;7565007;19;20361;-73
2022/11/21 12:09:41;;;;;;;4.88;1.80;;;7.40;99.90;;;;;;7570276;19;20961;-74
2022/11/21 12:12:38;;;;;;;3.20;1.90;;;7.30;99.90;;;;;;7568752;19;20033;-74
2022/11/21 12:18:18;;;;;;;4.60;2.70;;;7.30;99.90;;;;;;7573613;19;20051;-73
2022/11/21 12:21:03;;;;;;;4.57;2.30;;;8.00;99.90;;;;;;7566277;19;20014;-73
2022/11/21 12:23:35;;;;;;;3.20;2.13;;;8.20;99.90;;;;;;7574641;19;21422;-74
2022/11/21 12:26:19;;;;;;;4.13;1.90;;;8.10;99.90;;;;;;7563631;19;20018;-73
2022/11/21 12:29:16;;;;;;;6.68;2.85;;;8.20;99.90;;;;;;7563229;19;20090;-73
2022/11/21 12:32:03;;;;;;;2.92;1.50;;;8.00;99.90;;;;;;7574322;19;20030;-73
2022/11/21 12:34:38;;;;;;;8.98;1.90;;;7.80;99.90;;;;;;7567459;19;20093;-73
2022/11/21 12:37:36;;;;;;;4.60;2.35;;;7.50;99.90;;;;;;7564771;19;20022;-74
2022/11/21 12:40:27;;;;;;;3.75;1.92;;;7.30;99.90;;;;;;7562587;19;20090;-74
2022/11/21 12:43:21;;;;;;;2.92;1.60;;;7.50;99.90;;;;;;7591612;19;20018;-74
2022/11/21 12:46:01;;;;;;;;;;;7.70;99.90;;;;;;7600840;19;20110;-73
2022/11/21 12:55:21;;;;;;;6.93;2.85;;;8.10;99.90;;;;;;7598345;19;20014;-71
2022/11/21 12:58:26;;;;;;;5.22;1.48;;;8.60;99.90;;;;;;7602773;19;20478;-72
2022/11/21 13:01:26;;;;;;;11.98;1.10;;;8.70;99.80;;;;;;7603102;19;20022;-72
2022/11/21 13:04:00;;;;;;;3.35;1.30;;;8.70;97.90;;;;;;7613813;19;20057;-72
2022/11/21 13:06:38;;;;;;;4.78;2.10;;;8.80;99.50;;;;;;7605503;19;20018;-72
2022/11/21 13:09:17;;;;;;;3.58;1.60;;;9.60;96.80;;;;;;7600299;19;20030;-76
2022/11/21 13:12:01;;;;;;;2.42;1.35;;;9.30;95.50;;;;;;7601798;19;20474;-72
2022/11/21 13:14:35;;;;;;;3.25;1.42;;;8.90;93.90;;;;;;7612728;19;20097;-72
2022/11/21 13:17:13;;;;;;;;;;;9.00;94.10;;;;;;7614865;19;20042;-80
2022/11/21 13:19:51;;;;;;;2.25;1.45;;;9.00;93.70;;;;;;7618278;19;19923;-80
2022/11/21 13:22:35;;;;;;;4.13;1.55;;;8.80;94.30;;;;;;7612735;19;20011;-82
2022/11/21 13:25:45;;;;;;;2.88;1.48;;;9.10;94.90;;;;;;7614246;19;20025;-81
2022/11/21 13:28:18;;;;;;;2.88;1.45;;;10.00;91.60;;;;;;7621596;19;20015;-79
2022/11/21 13:30:52;;;;;;;1.98;1.42;;;9.70;91.60;;;;;;7608110;19;20062;-81
2022/11/21 13:33:33;;;;;;;;;;;9.80;90.70;;;;;;7589646;19;20106;-78
2022/11/21 13:36:34;;;;;;;4.22;1.45;;;10.90;87.70;;;;;;7614434;19;19926;-79
2022/11/21 13:39:06;;;;;;;4.65;1.60;;;10.70;83.80;;;;;;7611280;19;20038;-82
2022/11/21 13:44:32;;;;;;;3.15;1.10;;;9.20;88.70;;;;;;7583819;19;20014;-79
2022/11/21 13:47:11;;;;;;;5.15;2.28;;;8.60;90.60;;;;;;7586862;19;20018;-79
2022/11/21 13:49:43;;;;;;;3.08;0.90;;;8.40;92.20;;;;;;7591293;19;20540;-81
2022/11/21 13:52:18;;;;;;;4.32;1.45;;;8.20;94.50;;;;;;7592507;19;20010;-80
2022/11/21 13:55:10;;;;;;;8.07;2.33;;;8.00;95.80;;;;;;7599833;19;20018;-80
2022/11/21 13:57:54;;;;;;;7.15;2.25;;;7.70;97.40;;;;;;7605904;19;20984;-80
2022/11/21 14:00:35;;;;;;;;;;;7.70;98.50;;;;;;7592170;19;20015;-80
2022/11/21 14:03:13;;;;;;;3.53;1.70;;;7.80;99.10;;;;;;7574725;19;19923;-78
2022/11/21 14:06:12;;;;;;;5.05;2.00;;;8.10;98.90;;;;;;7589803;19;20026;-80
2022/11/21 14:09:23;;;;;;;9.13;1.75;;;9.20;95.80;;;;;;7603490;19;20048;-80
2022/11/21 14:12:28;;;;;;;5.60;1.40;;;8.90;93.60;;;;;;7574787;19;21154;-79
2022/11/21 14:15:06;;;;;;;5.13;2.45;;;9.20;92.80;;;;;;7596135;19;20015;-82
2022/11/21 14:17:45;;;;;;;8.20;2.50;;;10.50;91.80;;;;;;7596069;19;20021;-81
2022/11/21 14:20:20;;;;;;;5.28;2.42;;;12.70;82.60;;;;;;7588236;19;20018;-79
2022/11/21 14:22:53;;;;;;;7.72;2.55;;;14.40;72.70;;;;;;7601405;19;20011;-81